Pearl, Mississippi
Current Conditions -  °F | °C
As of 8:13 AM on Monday 22 Dec 2014 (Local Time) from KJAN Reporting Station
Haze Haze  
Wind Chill: 54°   Ceiling: 300
Heat Index: 54°   Visibility: 1mi
Dew Point: 53°   Wind: 10mph
Humidity: 97%   Direction: 140°SE
Pressure: 29.84"   Gusts: NA
Location:  32.2996°N, 90.1428°W
Report Text: KJAN 221413Z 14009KT 1SM BR OVC003 12/12 A2984 RMK AO2 T01220117 RVRNO
Loading
Personal Weather Stations






























Interactive Weather Map New forecast layout! Learn more

10-Day Weather Forecast

Advertisements
Track Severe Weather on mobile